sensor_id;sensor_type;location;lat;lon;timestamp;pressure;altitude;pressure_sealevel;temperature;humidity
3260;BME280;22469;48.150;14.004;2023-02-10T00:01:26;99836.28;;;0.03;58.83
3260;BME280;22469;48.150;14.004;2023-02-10T00:03:55;99834.59;;;0.02;58.98
3260;BME280;22469;48.150;14.004;2023-02-10T00:06:24;99827.94;;;0.04;58.78
3260;BME280;22469;48.150;14.004;2023-02-10T00:08:55;99833.03;;;0.06;58.58
3260;BME280;22469;48.150;14.004;2023-02-10T00:11:25;99837.34;;;0.08;58.75
3260;BME280;22469;48.150;14.004;2023-02-10T00:14:12;99836.41;;;0.06;58.91
3260;BME280;22469;48.150;14.004;2023-02-10T00:16:40;99834.88;;;0.10;58.86
3260;BME280;22469;48.150;14.004;2023-02-10T00:19:07;99838.38;;;0.13;58.79
3260;BME280;22469;48.150;14.004;2023-02-10T00:21:35;99846.94;;;0.17;58.51
3260;BME280;22469;48.150;14.004;2023-02-10T00:24:02;99850.94;;;0.12;58.54
3260;BME280;22469;48.150;14.004;2023-02-10T00:26:30;99859.25;;;0.09;59.04
3260;BME280;22469;48.150;14.004;2023-02-10T00:28:57;99866.00;;;0.10;58.47
3260;BME280;22469;48.150;14.004;2023-02-10T00:31:24;99872.72;;;0.10;58.68
3260;BME280;22469;48.150;14.004;2023-02-10T00:33:51;99872.66;;;0.08;58.50
3260;BME280;22469;48.150;14.004;2023-02-10T00:36:18;99873.53;;;0.09;58.39
3260;BME280;22469;48.150;14.004;2023-02-10T00:38:45;99872.72;;;0.10;58.79
3260;BME280;22469;48.150;14.004;2023-02-10T00:41:15;99861.78;;;0.09;58.69
3260;BME280;22469;48.150;14.004;2023-02-10T00:43:44;99845.72;;;0.07;59.45
3260;BME280;22469;48.150;14.004;2023-02-10T00:46:12;99857.41;;;0.05;59.28
3260;BME280;22469;48.150;14.004;2023-02-10T00:48:42;99858.91;;;0.00;59.53
3260;BME280;22469;48.150;14.004;2023-02-10T00:51:11;99857.97;;;-0.02;59.26
3260;BME280;22469;48.150;14.004;2023-02-10T00:53:39;99861.22;;;-0.05;59.90
3260;BME280;22469;48.150;14.004;2023-02-10T00:56:06;99854.59;;;-0.03;60.07
3260;BME280;22469;48.150;14.004;2023-02-10T00:58:34;99839.25;;;-0.07;60.58
3260;BME280;22469;48.150;14.004;2023-02-10T01:01:02;99845.34;;;-0.02;60.16
3260;BME280;22469;48.150;14.004;2023-02-10T01:03:30;99852.66;;;-0.08;61.43
3260;BME280;22469;48.150;14.004;2023-02-10T01:05:57;99846.50;;;-0.15;60.50
3260;BME280;22469;48.150;14.004;2023-02-10T01:08:24;99873.41;;;-0.15;60.08
3260;BME280;22469;48.150;14.004;2023-02-10T01:11:06;99876.66;;;-0.18;60.58
3260;BME280;22469;48.150;14.004;2023-02-10T01:13:37;99871.59;;;-0.18;60.66
3260;BME280;22469;48.150;14.004;2023-02-10T01:16:09;99870.88;;;-0.15;60.54
3260;BME280;22469;48.150;14.004;2023-02-10T01:18:41;99874.38;;;-0.12;60.36
3260;BME280;22469;48.150;14.004;2023-02-10T01:21:09;99872.81;;;-0.10;60.46
3260;BME280;22469;48.150;14.004;2023-02-10T01:23:37;99870.31;;;-0.08;60.12
3260;BME280;22469;48.150;14.004;2023-02-10T01:26:04;99875.38;;;-0.08;59.97
3260;BME280;22469;48.150;14.004;2023-02-10T01:28:31;99867.94;;;-0.05;60.67
3260;BME280;22469;48.150;14.004;2023-02-10T01:31:14;99879.00;;;-0.02;60.53
3260;BME280;22469;48.150;14.004;2023-02-10T01:33:43;99873.97;;;-0.02;60.29
3260;BME280;22469;48.150;14.004;2023-02-10T01:36:13;99876.47;;;-0.02;60.05
3260;BME280;22469;48.150;14.004;2023-02-10T01:38:42;99875.88;;;0.04;59.94
3260;BME280;22469;48.150;14.004;2023-02-10T01:41:09;99880.25;;;0.08;59.67
3260;BME280;22469;48.150;14.004;2023-02-10T01:46:29;99881.53;;;-0.02;59.27
3260;BME280;22469;48.150;14.004;2023-02-10T01:49:01;99887.44;;;-0.01;59.21
3260;BME280;22469;48.150;14.004;2023-02-10T01:54:47;99879.94;;;0.01;59.92
3260;BME280;22469;48.150;14.004;2023-02-10T01:57:18;99884.72;;;-0.06;59.99
3260;BME280;22469;48.150;14.004;2023-02-10T01:59:46;99890.59;;;-0.07;59.41
3260;BME280;22469;48.150;14.004;2023-02-10T02:02:14;99890.63;;;-0.05;59.39
3260;BME280;22469;48.150;14.004;2023-02-10T02:04:54;99888.97;;;-0.05;58.81
3260;BME280;22469;48.150;14.004;2023-02-10T02:07:29;99887.16;;;-0.07;58.66
3260;BME280;22469;48.150;14.004;2023-02-10T02:10:02;99891.34;;;-0.08;59.21
3260;BME280;22469;48.150;14.004;2023-02-10T02:12:52;99898.94;;;-0.08;58.76
3260;BME280;22469;48.150;14.004;2023-02-10T02:15:46;99902.25;;;-0.09;58.72
3260;BME280;22469;48.150;14.004;2023-02-10T02:37:01;99920.00;;;-0.27;59.10
3260;BME280;22469;48.150;14.004;2023-02-10T02:39:32;99915.88;;;-0.25;59.18
3260;BME280;22469;48.150;14.004;2023-02-10T02:42:20;99911.78;;;-0.22;59.15
3260;BME280;22469;48.150;14.004;2023-02-10T02:45:14;99921.06;;;-0.21;58.97
3260;BME280;22469;48.150;14.004;2023-02-10T02:48:09;99915.22;;;-0.20;59.21
3260;BME280;22469;48.150;14.004;2023-02-10T02:51:04;99917.75;;;-0.20;58.95
3260;BME280;22469;48.150;14.004;2023-02-10T02:59:08;99923.53;;;-0.23;59.25
3260;BME280;22469;48.150;14.004;2023-02-10T03:01:55;99921.59;;;-0.29;59.73
3260;BME280;22469;48.150;14.004;2023-02-10T03:04:28;99925.72;;;-0.31;60.01
3260;BME280;22469;48.150;14.004;2023-02-10T03:06:58;99921.31;;;-0.35;60.63
3260;BME280;22469;48.150;14.004;2023-02-10T03:09:25;99919.44;;;-0.40;60.91
3260;BME280;22469;48.150;14.004;2023-02-10T03:11:53;99920.81;;;-0.47;60.94
3260;BME280;22469;48.150;14.004;2023-02-10T03:14:20;99929.06;;;-0.51;61.60
3260;BME280;22469;48.150;14.004;2023-02-10T03:16:47;99937.47;;;-0.51;61.69
3260;BME280;22469;48.150;14.004;2023-02-10T03:19:15;99939.84;;;-0.54;61.42
3260;BME280;22469;48.150;14.004;2023-02-10T03:21:42;99938.06;;;-0.56;61.31
3260;BME280;22469;48.150;14.004;2023-02-10T03:24:09;99931.44;;;-0.54;61.30
3260;BME280;22469;48.150;14.004;2023-02-10T03:26:37;99939.78;;;-0.55;61.36
3260;BME280;22469;48.150;14.004;2023-02-10T03:29:05;99932.22;;;-0.55;61.21
3260;BME280;22469;48.150;14.004;2023-02-10T03:31:33;99933.16;;;-0.53;61.05
3260;BME280;22469;48.150;14.004;2023-02-10T03:34:00;99936.72;;;-0.48;60.82
3260;BME280;22469;48.150;14.004;2023-02-10T03:36:27;99945.81;;;-0.52;60.98
3260;BME280;22469;48.150;14.004;2023-02-10T03:38:54;99955.13;;;-0.51;61.22
3260;BME280;22469;48.150;14.004;2023-02-10T03:41:21;99950.78;;;-0.53;61.15
3260;BME280;22469;48.150;14.004;2023-02-10T03:43:48;99945.81;;;-0.52;60.88
3260;BME280;22469;48.150;14.004;2023-02-10T03:46:15;99945.31;;;-0.44;60.58
3260;BME280;22469;48.150;14.004;2023-02-10T03:48:42;99947.88;;;-0.43;60.65
3260;BME280;22469;48.150;14.004;2023-02-10T03:51:09;99958.63;;;-0.47;60.42
3260;BME280;22469;48.150;14.004;2023-02-10T03:53:37;99953.59;;;-0.47;60.45
3260;BME280;22469;48.150;14.004;2023-02-10T03:56:05;99960.34;;;-0.46;60.45
3260;BME280;22469;48.150;14.004;2023-02-10T03:58:33;99964.38;;;-0.50;60.35
3260;BME280;22469;48.150;14.004;2023-02-10T04:01:08;99959.34;;;-0.50;60.09
3260;BME280;22469;48.150;14.004;2023-02-10T04:03:37;99971.28;;;-0.45;59.99
3260;BME280;22469;48.150;14.004;2023-02-10T04:06:06;99971.22;;;-0.47;59.93
3260;BME280;22469;48.150;14.004;2023-02-10T04:08:34;99975.19;;;-0.52;60.00
3260;BME280;22469;48.150;14.004;2023-02-10T04:11:02;99966.09;;;-0.49;60.27
3260;BME280;22469;48.150;14.004;2023-02-10T04:13:30;99966.19;;;-0.47;60.00
3260;BME280;22469;48.150;14.004;2023-02-10T04:18:28;99965.34;;;-0.47;60.21
3260;BME280;22469;48.150;14.004;2023-02-10T04:20:55;99962.06;;;-0.45;60.12
3260;BME280;22469;48.150;14.004;2023-02-10T04:23:22;99957.81;;;-0.46;59.81
3260;BME280;22469;48.150;14.004;2023-02-10T04:25:49;99968.00;;;-0.44;59.39
3260;BME280;22469;48.150;14.004;2023-02-10T04:28:16;99962.81;;;-0.47;59.26
3260;BME280;22469;48.150;14.004;2023-02-10T04:30:43;99958.34;;;-0.53;59.23
3260;BME280;22469;48.150;14.004;2023-02-10T04:33:10;99959.94;;;-0.55;59.25
3260;BME280;22469;48.150;14.004;2023-02-10T04:35:38;99958.88;;;-0.60;59.36
3260;BME280;22469;48.150;14.004;2023-02-10T04:38:04;99965.31;;;-0.67;59.76
3260;BME280;22469;48.150;14.004;2023-02-10T04:40:32;99964.31;;;-0.70;60.12
3260;BME280;22469;48.150;14.004;2023-02-10T04:42:59;99975.81;;;-0.76;60.78
3260;BME280;22469;48.150;14.004;2023-02-10T04:45:25;99969.78;;;-0.79;60.90
3260;BME280;22469;48.150;14.004;2023-02-10T04:47:53;99971.31;;;-0.83;60.59
3260;BME280;22469;48.150;14.004;2023-02-10T04:50:19;99977.19;;;-0.82;60.57
3260;BME280;22469;48.150;14.004;2023-02-10T04:52:46;99965.50;;;-0.82;60.88
3260;BME280;22469;48.150;14.004;2023-02-10T04:55:13;99973.78;;;-0.84;61.23
3260;BME280;22469;48.150;14.004;2023-02-10T04:57:40;99972.97;;;-0.83;61.39
3260;BME280;22469;48.150;14.004;2023-02-10T05:00:08;99978.19;;;-0.79;61.28
3260;BME280;22469;48.150;14.004;2023-02-10T05:02:36;99969.94;;;-0.76;60.84
3260;BME280;22469;48.150;14.004;2023-02-10T05:05:03;99979.09;;;-0.78;60.71
3260;BME280;22469;48.150;14.004;2023-02-10T05:07:31;99987.50;;;-0.78;60.10
3260;BME280;22469;48.150;14.004;2023-02-10T05:09:58;99980.00;;;-0.76;59.97
3260;BME280;22469;48.150;14.004;2023-02-10T05:12:25;99988.50;;;-0.74;60.07
3260;BME280;22469;48.150;14.004;2023-02-10T05:14:52;99986.56;;;-0.80;59.74
3260;BME280;22469;48.150;14.004;2023-02-10T05:17:20;99989.09;;;-0.80;59.91
3260;BME280;22469;48.150;14.004;2023-02-10T05:19:46;99990.59;;;-0.83;59.84
3260;BME280;22469;48.150;14.004;2023-02-10T05:22:13;99992.84;;;-0.89;59.91
3260;BME280;22469;48.150;14.004;2023-02-10T05:24:41;99990.25;;;-0.91;60.16
3260;BME280;22469;48.150;14.004;2023-02-10T05:27:08;99997.81;;;-0.91;60.26
3260;BME280;22469;48.150;14.004;2023-02-10T05:29:35;99992.06;;;-0.88;60.09
3260;BME280;22469;48.150;14.004;2023-02-10T05:32:02;100005.56;;;-0.86;60.48
3260;BME280;22469;48.150;14.004;2023-02-10T05:34:29;99999.75;;;-0.85;60.20
3260;BME280;22469;48.150;14.004;2023-02-10T05:36:56;100013.38;;;-0.82;60.01
3260;BME280;22469;48.150;14.004;2023-02-10T05:39:24;100019.97;;;-0.84;59.98
3260;BME280;22469;48.150;14.004;2023-02-10T05:41:55;100017.31;;;-0.87;60.05
3260;BME280;22469;48.150;14.004;2023-02-10T05:44:24;100017.41;;;-0.85;59.86
3260;BME280;22469;48.150;14.004;2023-02-10T05:46:53;100019.63;;;-0.91;60.29
3260;BME280;22469;48.150;14.004;2023-02-10T05:49:21;100022.00;;;-0.94;60.49
3260;BME280;22469;48.150;14.004;2023-02-10T05:51:48;100031.13;;;-0.97;60.85
3260;BME280;22469;48.150;14.004;2023-02-10T05:54:17;100024.38;;;-0.98;60.36
3260;BME280;22469;48.150;14.004;2023-02-10T05:56:45;100040.50;;;-0.94;60.67
3260;BME280;22469;48.150;14.004;2023-02-10T05:59:12;100041.50;;;-0.90;60.30
3260;BME280;22469;48.150;14.004;2023-02-10T06:01:41;100046.53;;;-0.90;60.54
3260;BME280;22469;48.150;14.004;2023-02-10T06:04:09;100040.69;;;-0.89;60.39
3260;BME280;22469;48.150;14.004;2023-02-10T06:06:37;100044.16;;;-0.87;60.00
3260;BME280;22469;48.150;14.004;2023-02-10T06:09:04;100043.31;;;-0.88;60.64
3260;BME280;22469;48.150;14.004;2023-02-10T06:11:31;100055.19;;;-0.85;60.76
3260;BME280;22469;48.150;14.004;2023-02-10T06:13:59;100050.06;;;-0.87;60.83
3260;BME280;22469;48.150;14.004;2023-02-10T06:16:26;100056.03;;;-0.85;60.60
3260;BME280;22469;48.150;14.004;2023-02-10T06:18:53;100056.19;;;-0.82;61.03
3260;BME280;22469;48.150;14.004;2023-02-10T06:21:22;100058.63;;;-0.83;60.83
3260;BME280;22469;48.150;14.004;2023-02-10T06:23:49;100073.81;;;-0.82;60.91
3260;BME280;22469;48.150;14.004;2023-02-10T06:26:17;100073.59;;;-0.86;61.31
3260;BME280;22469;48.150;14.004;2023-02-10T06:28:44;100087.41;;;-0.78;61.42
3260;BME280;22469;48.150;14.004;2023-02-10T06:31:11;100095.13;;;-0.75;61.84
3260;BME280;22469;48.150;14.004;2023-02-10T06:33:38;100102.88;;;-0.70;61.58
3260;BME280;22469;48.150;14.004;2023-02-10T06:36:06;100089.63;;;-0.66;61.08
3260;BME280;22469;48.150;14.004;2023-02-10T06:38:35;100095.63;;;-0.64;61.78
3260;BME280;22469;48.150;14.004;2023-02-10T06:41:04;100116.84;;;-0.59;62.03
3260;BME280;22469;48.150;14.004;2023-02-10T06:43:32;100109.44;;;-0.56;61.69
3260;BME280;22469;48.150;14.004;2023-02-10T06:45:59;100128.16;;;-0.51;61.39
3260;BME280;22469;48.150;14.004;2023-02-10T06:48:27;100124.13;;;-0.47;61.56
3260;BME280;22469;48.150;14.004;2023-02-10T06:50:54;100132.84;;;-0.41;61.75
3260;BME280;22469;48.150;14.004;2023-02-10T06:53:22;100133.09;;;-0.35;61.95
3260;BME280;22469;48.150;14.004;2023-02-10T06:55:49;100139.28;;;-0.28;61.83
3260;BME280;22469;48.150;14.004;2023-02-10T06:58:16;100142.19;;;-0.20;62.34
3260;BME280;22469;48.150;14.004;2023-02-10T07:00:43;100139.91;;;-0.14;62.57
3260;BME280;22469;48.150;14.004;2023-02-10T07:03:13;100148.56;;;-0.09;62.64
3260;BME280;22469;48.150;14.004;2023-02-10T07:05:41;100146.31;;;-0.03;62.48
3260;BME280;22469;48.150;14.004;2023-02-10T07:08:09;100146.38;;;-0.02;62.06
3260;BME280;22469;48.150;14.004;2023-02-10T07:10:36;100140.00;;;0.07;62.59
3260;BME280;22469;48.150;14.004;2023-02-10T07:13:03;100146.13;;;0.12;62.95
3260;BME280;22469;48.150;14.004;2023-02-10T07:15:30;100138.84;;;0.18;62.92
3260;BME280;22469;48.150;14.004;2023-02-10T07:17:58;100137.44;;;0.25;62.94
3260;BME280;22469;48.150;14.004;2023-02-10T07:20:25;100142.69;;;0.29;62.62
3260;BME280;22469;48.150;14.004;2023-02-10T07:22:52;100148.00;;;0.35;62.41
3260;BME280;22469;48.150;14.004;2023-02-10T07:25:19;100152.53;;;0.42;62.33
3260;BME280;22469;48.150;14.004;2023-02-10T07:27:46;100151.03;;;0.47;62.25
3260;BME280;22469;48.150;14.004;2023-02-10T07:30:13;100154.63;;;0.53;62.28
3260;BME280;22469;48.150;14.004;2023-02-10T07:32:40;100148.09;;;0.58;61.98
3260;BME280;22469;48.150;14.004;2023-02-10T07:35:08;100143.28;;;0.62;61.79
3260;BME280;22469;48.150;14.004;2023-02-10T07:37:36;100142.72;;;0.69;62.15
3260;BME280;22469;48.150;14.004;2023-02-10T07:40:04;100158.06;;;0.74;61.99
3260;BME280;22469;48.150;14.004;2023-02-10T07:42:31;100149.63;;;0.74;62.10
3260;BME280;22469;48.150;14.004;2023-02-10T07:44:59;100161.66;;;0.79;61.76
3260;BME280;22469;48.150;14.004;2023-02-10T07:47:26;100165.59;;;0.73;61.75
3260;BME280;22469;48.150;14.004;2023-02-10T07:49:53;100166.72;;;0.79;61.28
3260;BME280;22469;48.150;14.004;2023-02-10T07:52:21;100178.59;;;0.82;61.48
3260;BME280;22469;48.150;14.004;2023-02-10T07:54:49;100174.34;;;0.81;61.93
3260;BME280;22469;48.150;14.004;2023-02-10T07:57:16;100172.25;;;0.91;61.57
3260;BME280;22469;48.150;14.004;2023-02-10T07:59:44;100170.97;;;1.01;61.28
3260;BME280;22469;48.150;14.004;2023-02-10T08:02:11;100169.63;;;1.09;61.21
3260;BME280;22469;48.150;14.004;2023-02-10T08:04:38;100180.97;;;0.98;61.95
3260;BME280;22469;48.150;14.004;2023-02-10T08:07:05;100191.34;;;1.04;61.52
3260;BME280;22469;48.150;14.004;2023-02-10T08:09:32;100190.78;;;1.11;61.58
3260;BME280;22469;48.150;14.004;2023-02-10T08:11:59;100180.66;;;1.32;61.20
3260;BME280;22469;48.150;14.004;2023-02-10T08:14:26;100182.31;;;1.53;60.81
3260;BME280;22469;48.150;14.004;2023-02-10T08:16:53;100182.00;;;1.66;60.74
3260;BME280;22469;48.150;14.004;2023-02-10T08:19:20;100161.16;;;1.72;59.37
3260;BME280;22469;48.150;14.004;2023-02-10T08:21:47;100176.84;;;1.85;59.73
3260;BME280;22469;48.150;14.004;2023-02-10T08:24:14;100172.94;;;1.94;58.80
3260;BME280;22469;48.150;14.004;2023-02-10T08:26:41;100181.56;;;1.99;58.82
3260;BME280;22469;48.150;14.004;2023-02-10T08:29:09;100177.94;;;2.14;59.04
3260;BME280;22469;48.150;14.004;2023-02-10T08:31:39;100181.75;;;2.26;58.04
3260;BME280;22469;48.150;14.004;2023-02-10T08:34:14;100187.94;;;2.34;57.82
3260;BME280;22469;48.150;14.004;2023-02-10T08:36:42;100186.63;;;2.45;57.53
3260;BME280;22469;48.150;14.004;2023-02-10T08:39:10;100187.19;;;2.60;57.43
3260;BME280;22469;48.150;14.004;2023-02-10T08:41:38;100192.75;;;2.74;57.34
3260;BME280;22469;48.150;14.004;2023-02-10T08:44:06;100198.19;;;2.85;57.90
3260;BME280;22469;48.150;14.004;2023-02-10T08:46:34;100201.22;;;3.00;57.91
3260;BME280;22469;48.150;14.004;2023-02-10T08:49:01;100204.28;;;3.16;57.41
3260;BME280;22469;48.150;14.004;2023-02-10T08:51:28;100188.47;;;3.23;57.00
3260;BME280;22469;48.150;14.004;2023-02-10T08:53:57;100199.69;;;3.31;56.13
3260;BME280;22469;48.150;14.004;2023-02-10T08:56:24;100199.19;;;3.41;56.29
3260;BME280;22469;48.150;14.004;2023-02-10T08:58:52;100202.94;;;3.52;55.87
3260;BME280;22469;48.150;14.004;2023-02-10T09:01:23;100202.44;;;3.63;55.21
3260;BME280;22469;48.150;14.004;2023-02-10T09:03:56;100199.25;;;3.70;55.21
3260;BME280;22469;48.150;14.004;2023-02-10T09:06:25;100205.50;;;3.79;56.03
3260;BME280;22469;48.150;14.004;2023-02-10T09:08:54;100209.31;;;3.94;55.90
3260;BME280;22469;48.150;14.004;2023-02-10T09:11:22;100203.00;;;4.10;55.96
3260;BME280;22469;48.150;14.004;2023-02-10T09:13:51;100197.34;;;4.18;55.21
3260;BME280;22469;48.150;14.004;2023-02-10T09:16:19;100199.44;;;4.33;54.17
3260;BME280;22469;48.150;14.004;2023-02-10T09:18:46;100207.06;;;4.33;53.62
3260;BME280;22469;48.150;14.004;2023-02-10T09:21:13;100195.59;;;4.47;53.87
3260;BME280;22469;48.150;14.004;2023-02-10T09:23:40;100198.66;;;4.66;53.68
3260;BME280;22469;48.150;14.004;2023-02-10T09:26:09;100195.59;;;4.78;53.25
3260;BME280;22469;48.150;14.004;2023-02-10T09:28:38;100193.63;;;4.37;52.28
3260;BME280;22469;48.150;14.004;2023-02-10T09:31:07;100200.56;;;4.73;52.86
3260;BME280;22469;48.150;14.004;2023-02-10T09:33:35;100192.06;;;4.72;51.39
3260;BME280;22469;48.150;14.004;2023-02-10T09:36:04;100198.53;;;4.93;51.70
3260;BME280;22469;48.150;14.004;2023-02-10T09:38:33;100199.34;;;4.92;50.76
3260;BME280;22469;48.150;14.004;2023-02-10T09:44:21;100198.56;;;5.28;51.33
3260;BME280;22469;48.150;14.004;2023-02-10T09:49:47;100205.34;;;5.62;49.98
3260;BME280;22469;48.150;14.004;2023-02-10T09:55:29;100209.47;;;5.93;49.38
3260;BME280;22469;48.150;14.004;2023-02-10T10:01:25;100200.66;;;6.16;48.11
3260;BME280;22469;48.150;14.004;2023-02-10T10:04:31;100193.09;;;6.21;48.80
3260;BME280;22469;48.150;14.004;2023-02-10T10:06:55;100189.31;;;6.43;48.09
3260;BME280;22469;48.150;14.004;2023-02-10T10:09:44;100202.97;;;6.47;47.49
3260;BME280;22469;48.150;14.004;2023-02-10T10:12:18;100196.56;;;6.67;47.04
3260;BME280;22469;48.150;14.004;2023-02-10T10:14:46;100202.00;;;6.85;46.65
3260;BME280;22469;48.150;14.004;2023-02-10T10:21:37;100200.44;;;6.92;46.02
3260;BME280;22469;48.150;14.004;2023-02-10T10:32:40;100200.06;;;7.19;45.82
3260;BME280;22469;48.150;14.004;2023-02-10T10:35:38;100197.28;;;7.07;45.28
3260;BME280;22469;48.150;14.004;2023-02-10T10:38:37;100195.91;;;7.26;44.45
3260;BME280;22469;48.150;14.004;2023-02-10T10:41:22;100182.25;;;7.24;44.89
3260;BME280;22469;48.150;14.004;2023-02-10T10:43:55;100187.97;;;7.09;45.12
3260;BME280;22469;48.150;14.004;2023-02-10T10:49:21;100173.69;;;7.19;45.48
3260;BME280;22469;48.150;14.004;2023-02-10T10:51:48;100167.84;;;7.27;44.93
3260;BME280;22469;48.150;14.004;2023-02-10T10:54:18;100162.16;;;6.92;45.34
3260;BME280;22469;48.150;14.004;2023-02-10T10:56:54;100153.63;;;6.90;45.12
3260;BME280;22469;48.150;14.004;2023-02-10T11:02:15;100143.63;;;7.02;44.42
3260;BME280;22469;48.150;14.004;2023-02-10T11:04:44;100144.59;;;7.10;44.50
3260;BME280;22469;48.150;14.004;2023-02-10T11:07:20;100150.91;;;7.31;44.44
3260;BME280;22469;48.150;14.004;2023-02-10T11:09:52;100150.84;;;7.28;43.94
3260;BME280;22469;48.150;14.004;2023-02-10T11:12:21;100149.28;;;7.36;44.08
3260;BME280;22469;48.150;14.004;2023-02-10T11:14:54;100147.78;;;7.49;43.54
3260;BME280;22469;48.150;14.004;2023-02-10T11:17:24;100139.38;;;7.57;44.07
3260;BME280;22469;48.150;14.004;2023-02-10T11:22:40;100134.38;;;7.65;43.81
3260;BME280;22469;48.150;14.004;2023-02-10T11:27:56;100124.50;;;7.88;43.34
3260;BME280;22469;48.150;14.004;2023-02-10T11:30:28;100115.91;;;7.83;42.97
3260;BME280;22469;48.150;14.004;2023-02-10T11:33:15;100099.69;;;7.79;42.78
3260;BME280;22469;48.150;14.004;2023-02-10T11:38:32;100104.34;;;7.46;43.61
3260;BME280;22469;48.150;14.004;2023-02-10T11:41:08;100101.75;;;7.44;43.46
3260;BME280;22469;48.150;14.004;2023-02-10T11:43:47;100102.38;;;7.29;43.82
3260;BME280;22469;48.150;14.004;2023-02-10T11:46:32;100100.78;;;7.38;43.96
3260;BME280;22469;48.150;14.004;2023-02-10T11:49:04;100097.56;;;7.49;44.43
3260;BME280;22469;48.150;14.004;2023-02-10T11:51:36;100094.97;;;7.48;44.32
3260;BME280;22469;48.150;14.004;2023-02-10T11:54:03;100077.97;;;7.47;44.18
3260;BME280;22469;48.150;14.004;2023-02-10T11:56:38;100078.72;;;7.40;44.24
3260;BME280;22469;48.150;14.004;2023-02-10T12:02:22;100069.78;;;7.72;43.72
3260;BME280;22469;48.150;14.004;2023-02-10T12:05:28;100072.09;;;7.54;44.04
3260;BME280;22469;48.150;14.004;2023-02-10T12:08:45;100074.44;;;7.40;43.78
3260;BME280;22469;48.150;14.004;2023-02-10T12:19:48;100058.56;;;7.61;43.88
3260;BME280;22469;48.150;14.004;2023-02-10T12:25:21;100061.72;;;7.43;44.57
3260;BME280;22469;48.150;14.004;2023-02-10T12:28:10;100054.06;;;7.43;44.51
3260;BME280;22469;48.150;14.004;2023-02-10T12:34:08;100044.47;;;7.92;44.04
3260;BME280;22469;48.150;14.004;2023-02-10T12:42:58;100031.78;;;8.00;43.29
3260;BME280;22469;48.150;14.004;2023-02-10T12:45:35;100028.63;;;8.22;42.91
3260;BME280;22469;48.150;14.004;2023-02-10T12:51:25;100021.94;;;8.37;42.23
3260;BME280;22469;48.150;14.004;2023-02-10T12:54:00;100020.34;;;8.46;42.26
3260;BME280;22469;48.150;14.004;2023-02-10T12:56:38;100020.47;;;8.59;42.06
3260;BME280;22469;48.150;14.004;2023-02-10T12:59:17;100016.28;;;8.65;42.02
3260;BME280;22469;48.150;14.004;2023-02-10T13:02:16;100018.06;;;8.77;41.84
3260;BME280;22469;48.150;14.004;2023-02-10T13:04:53;100015.25;;;8.46;42.21
3260;BME280;22469;48.150;14.004;2023-02-10T13:07:36;100005.88;;;8.47;42.21
3260;BME280;22469;48.150;14.004;2023-02-10T13:16:10;100000.03;;;8.62;42.02
3260;BME280;22469;48.150;14.004;2023-02-10T13:22:00;99998.38;;;8.65;41.48
3260;BME280;22469;48.150;14.004;2023-02-10T13:30:38;100006.91;;;8.70;41.84
3260;BME280;22469;48.150;14.004;2023-02-10T13:33:35;100007.75;;;8.66;41.28
3260;BME280;22469;48.150;14.004;2023-02-10T13:36:24;100006.97;;;8.78;41.78
3260;BME280;22469;48.150;14.004;2023-02-10T13:41:45;100013.88;;;8.88;41.38
3260;BME280;22469;48.150;14.004;2023-02-10T13:44:32;100016.47;;;8.93;41.41
3260;BME280;22469;48.150;14.004;2023-02-10T13:52:51;100013.91;;;8.94;40.90
3260;BME280;22469;48.150;14.004;2023-02-10T13:58:24;100010.59;;;9.03;40.70
3260;BME280;22469;48.150;14.004;2023-02-10T14:00:55;100019.13;;;9.08;40.54
3260;BME280;22469;48.150;14.004;2023-02-10T14:03:29;100005.53;;;9.15;40.71
3260;BME280;22469;48.150;14.004;2023-02-10T14:08:38;100006.38;;;9.14;40.28
3260;BME280;22469;48.150;14.004;2023-02-10T14:11:35;100012.31;;;9.09;40.56
3260;BME280;22469;48.150;14.004;2023-02-10T14:16:51;100005.47;;;9.06;40.64
3260;BME280;22469;48.150;14.004;2023-02-10T14:19:35;100013.25;;;9.20;40.41
3260;BME280;22469;48.150;14.004;2023-02-10T14:22:04;100012.38;;;9.18;40.46
3260;BME280;22469;48.150;14.004;2023-02-10T14:24:35;100008.94;;;9.16;40.72
3260;BME280;22469;48.150;14.004;2023-02-10T14:27:18;99999.50;;;9.09;40.78
3260;BME280;22469;48.150;14.004;2023-02-10T14:32:44;99996.13;;;9.10;40.65
3260;BME280;22469;48.150;14.004;2023-02-10T14:35:21;99999.50;;;9.07;40.67
3260;BME280;22469;48.150;14.004;2023-02-10T14:37:57;99996.06;;;9.04;40.69
3260;BME280;22469;48.150;14.004;2023-02-10T14:40:27;99993.41;;;8.87;40.56
3260;BME280;22469;48.150;14.004;2023-02-10T14:43:02;99994.28;;;8.92;41.05
3260;BME280;22469;48.150;14.004;2023-02-10T14:45:30;100010.56;;;9.00;40.89
3260;BME280;22469;48.150;14.004;2023-02-10T14:47:59;99996.09;;;9.08;40.34
3260;BME280;22469;48.150;14.004;2023-02-10T14:50:35;99996.97;;;9.12;40.57
3260;BME280;22469;48.150;14.004;2023-02-10T14:53:05;100004.66;;;9.15;40.45
3260;BME280;22469;48.150;14.004;2023-02-10T14:55:36;100004.69;;;9.16;40.50
3260;BME280;22469;48.150;14.004;2023-02-10T14:58:14;100008.97;;;9.17;40.20
3260;BME280;22469;48.150;14.004;2023-02-10T15:03:23;100011.50;;;9.19;40.34
3260;BME280;22469;48.150;14.004;2023-02-10T15:05:52;100008.09;;;9.18;40.05
3260;BME280;22469;48.150;14.004;2023-02-10T15:08:31;100007.25;;;9.22;40.42
3260;BME280;22469;48.150;14.004;2023-02-10T15:11:18;100004.72;;;9.24;40.27
3260;BME280;22469;48.150;14.004;2023-02-10T15:14:15;100003.81;;;9.14;40.39
3260;BME280;22469;48.150;14.004;2023-02-10T15:16:46;100014.06;;;9.14;40.43
3260;BME280;22469;48.150;14.004;2023-02-10T15:19:15;100022.53;;;9.06;40.23
3260;BME280;22469;48.150;14.004;2023-02-10T15:21:45;100023.38;;;9.03;40.57
3260;BME280;22469;48.150;14.004;2023-02-10T15:26:50;100013.81;;;8.79;40.92
3260;BME280;22469;48.150;14.004;2023-02-10T15:29:17;100012.97;;;8.80;40.88
3260;BME280;22469;48.150;14.004;2023-02-10T15:31:58;100010.44;;;8.83;41.11
3260;BME280;22469;48.150;14.004;2023-02-10T15:34:29;100014.66;;;8.81;41.19
3260;BME280;22469;48.150;14.004;2023-02-10T15:37:05;100011.28;;;8.82;41.27
3260;BME280;22469;48.150;14.004;2023-02-10T15:39:54;100015.56;;;8.83;41.89
3260;BME280;22469;48.150;14.004;2023-02-10T15:42:31;100020.63;;;8.75;41.80